createdAt,value
2022-09-20T00:01:32.704Z,98984.50
2022-09-20T00:04:01.870Z,98980.31
2022-09-20T00:06:31.004Z,98979.91
2022-09-20T00:08:57.968Z,98970.69
2022-09-20T00:11:27.639Z,98975.06
2022-09-20T00:13:56.590Z,98975.50
2022-09-20T00:16:33.121Z,98980.09
2022-09-20T00:19:03.804Z,98976.28
2022-09-20T00:21:31.107Z,98971.66
2022-09-20T00:23:58.726Z,98970.88
2022-09-20T00:26:29.044Z,98969.91
2022-09-20T00:28:57.440Z,98963.69
2022-09-20T00:31:24.733Z,98971.47
2022-09-20T00:34:13.441Z,98968.66
2022-09-20T00:36:39.990Z,98963.63
2022-09-20T00:39:06.532Z,98967.84
2022-09-20T00:41:33.538Z,98974.84
2022-09-20T00:44:01.233Z,98964.88
2022-09-20T00:46:35.576Z,98959.09
2022-09-20T00:49:20.426Z,98961.09
2022-09-20T00:51:51.805Z,98953.44
2022-09-20T00:54:20.867Z,98967.06
2022-09-20T00:56:48.522Z,98960.06
2022-09-20T00:59:19.912Z,98958.03
2022-09-20T01:01:52.466Z,98962.44
2022-09-20T01:04:22.668Z,98962.66
2022-09-20T01:06:53.907Z,98959.44
2022-09-20T01:09:20.690Z,98961.03
2022-09-20T01:11:49.592Z,98964.47
2022-09-20T01:14:19.049Z,98962.28
2022-09-20T01:16:45.911Z,98964.88
2022-09-20T01:19:24.257Z,98970.25
2022-09-20T01:21:53.010Z,98975.06
2022-09-20T01:24:29.330Z,98978.66
2022-09-20T01:27:07.972Z,98968.88
2022-09-20T01:29:37.625Z,98976.50
2022-09-20T01:32:12.754Z,98972.72
2022-09-20T01:34:53.061Z,98967.13
2022-09-20T01:37:36.567Z,98969.97
2022-09-20T01:40:33.406Z,98974.38
2022-09-20T01:43:15.779Z,98970.75
2022-09-20T01:45:48.696Z,98971.16
2022-09-20T01:48:21.070Z,98973.53
2022-09-20T01:51:24.921Z,98977.16
2022-09-20T01:54:10.052Z,98977.50
2022-09-20T01:57:26.486Z,98976.91
2022-09-20T02:00:06.006Z,98970.31
2022-09-20T02:03:12.440Z,98976.75
2022-09-20T02:06:06.737Z,98981.25
2022-09-20T02:08:49.511Z,98976.63
2022-09-20T02:11:24.244Z,98977.63
2022-09-20T02:14:03.531Z,98983.78
2022-09-20T02:16:43.009Z,98973.59
2022-09-20T02:19:28.177Z,98977.00
2022-09-20T02:21:54.609Z,98982.34
2022-09-20T02:24:38.952Z,98977.91
2022-09-20T02:27:15.747Z,98971.56
2022-09-20T02:30:26.615Z,98972.72
2022-09-20T02:32:56.036Z,98971.91
2022-09-20T02:35:33.246Z,98975.50
2022-09-20T02:38:11.812Z,98976.28
2022-09-20T02:41:16.770Z,98973.69
2022-09-20T02:44:04.271Z,98976.75
2022-09-20T02:46:37.589Z,98975.53
2022-09-20T02:49:35.912Z,98974.66
2022-09-20T02:52:23.878Z,98979.84
2022-09-20T02:55:14.760Z,98972.63
2022-09-20T02:58:09.052Z,98973.38
2022-09-20T03:00:54.581Z,98973.16
2022-09-20T03:03:59.385Z,98969.94
2022-09-20T03:07:03.455Z,98981.31
2022-09-20T03:09:51.785Z,98977.53
2022-09-20T03:12:57.181Z,98977.75
2022-09-20T03:15:52.323Z,98988.25
2022-09-20T03:18:34.338Z,98984.00
2022-09-20T03:21:17.263Z,98986.44
2022-09-20T03:24:21.286Z,98995.03
2022-09-20T03:27:01.680Z,98986.84
2022-09-20T03:29:47.275Z,98997.06
2022-09-20T03:32:54.588Z,98991.88
2022-09-20T03:35:43.143Z,98987.63
2022-09-20T03:38:22.623Z,98994.41
2022-09-20T03:41:19.729Z,98989.97
2022-09-20T03:43:55.403Z,98991.34
2022-09-20T03:46:27.087Z,98999.50
2022-09-20T03:49:00.460Z,99000.69
2022-09-20T03:52:05.457Z,99001.88
2022-09-20T03:54:48.166Z,99002.41
2022-09-20T03:57:43.960Z,98993.63
2022-09-20T04:00:13.439Z,99001.78
2022-09-20T04:03:19.013Z,99003.34
2022-09-20T04:06:47.470Z,99005.50
2022-09-20T04:09:22.854Z,99007.69
2022-09-20T04:12:09.481Z,99013.66
2022-09-20T04:14:50.494Z,99012.78
2022-09-20T04:17:31.207Z,99012.53
2022-09-20T04:20:01.776Z,99017.66
2022-09-20T04:22:29.635Z,99012.28
2022-09-20T04:25:18.595Z,99011.47
2022-09-20T04:27:53.317Z,99017.41
2022-09-20T04:30:30.390Z,99020.75
2022-09-20T04:33:14.643Z,99021.91
2022-09-20T04:36:02.659Z,99022.44
2022-09-20T04:38:30.027Z,99030.41
2022-09-20T04:41:32.491Z,99026.84
2022-09-20T04:44:35.804Z,99024.41
2022-09-20T04:47:08.291Z,99030.06
2022-09-20T04:49:46.898Z,99032.81
2022-09-20T04:52:22.571Z,99033.81
2022-09-20T04:55:15.749Z,99029.59
2022-09-20T04:58:01.469Z,99034.25
2022-09-20T05:00:43.511Z,99032.28
2022-09-20T05:03:54.401Z,99046.31
2022-09-20T05:06:38.988Z,99043.97
2022-09-20T05:09:22.688Z,99045.47
2022-09-20T05:12:30.589Z,99048.09
2022-09-20T05:15:21.338Z,99053.50
2022-09-20T05:18:01.859Z,99046.34
2022-09-20T05:20:59.413Z,99047.94
2022-09-20T05:23:35.026Z,99046.03
2022-09-20T05:26:12.518Z,99042.63
2022-09-20T05:28:50.119Z,99046.03
2022-09-20T05:31:25.548Z,99047.88
2022-09-20T05:34:04.202Z,99043.56
2022-09-20T05:36:47.544Z,99050.59
2022-09-20T05:39:38.290Z,99052.78
2022-09-20T05:42:14.951Z,99054.75
2022-09-20T05:44:54.621Z,99059.50
2022-09-20T05:47:37.608Z,99069.88
2022-09-20T05:50:29.961Z,99071.09
2022-09-20T05:53:34.859Z,99074.22
2022-09-20T05:56:27.514Z,99071.56
2022-09-20T05:59:21.121Z,99072.00
2022-09-20T06:02:21.670Z,99075.91
2022-09-20T06:04:57.340Z,99085.94
2022-09-20T06:07:34.201Z,99081.31
2022-09-20T06:10:23.468Z,99077.38
2022-09-20T06:13:22.039Z,99077.97
2022-09-20T06:15:58.706Z,99081.19
2022-09-20T06:18:31.885Z,99076.78
2022-09-20T06:21:22.188Z,99074.84
2022-09-20T06:23:50.935Z,99074.50
2022-09-20T06:26:26.362Z,99076.34
2022-09-20T06:28:59.447Z,99081.00
2022-09-20T06:31:28.440Z,99078.84
2022-09-20T06:34:03.569Z,99075.78
2022-09-20T06:37:03.989Z,99076.56
2022-09-20T06:39:58.737Z,99075.53
2022-09-20T06:42:27.345Z,99082.00
2022-09-20T06:44:54.181Z,99078.69
2022-09-20T06:47:22.656Z,99074.28
2022-09-20T06:49:50.402Z,99081.91
2022-09-20T06:52:22.723Z,99082.69
2022-09-20T06:54:54.883Z,99088.59
2022-09-20T06:57:29.132Z,99096.63
2022-09-20T06:59:55.569Z,99091.31
2022-09-20T07:02:22.180Z,99093.56
2022-09-20T07:04:48.735Z,99083.59
2022-09-20T07:07:19.206Z,99088.19
2022-09-20T07:09:45.838Z,99088.25
2022-09-20T07:12:12.502Z,99090.19
2022-09-20T07:14:39.485Z,99095.44
2022-09-20T07:17:06.648Z,99104.09
2022-09-20T07:19:33.903Z,99097.25
2022-09-20T07:22:00.404Z,99102.44
2022-09-20T07:24:26.887Z,99100.03
2022-09-20T07:27:01.686Z,99109.72
2022-09-20T07:29:29.096Z,99103.00
2022-09-20T07:31:56.982Z,99100.81
2022-09-20T07:34:23.992Z,99098.81
2022-09-20T07:36:51.311Z,99106.38
2022-09-20T07:39:18.072Z,99109.41
2022-09-20T07:41:51.080Z,99111.34
2022-09-20T07:44:22.034Z,99110.78
2022-09-20T07:46:52.239Z,99116.84
2022-09-20T07:49:21.267Z,99119.66
2022-09-20T07:51:51.110Z,99115.25
2022-09-20T07:54:18.226Z,99119.63
2022-09-20T07:56:45.684Z,99117.44
2022-09-20T07:59:13.105Z,99117.41
2022-09-20T08:01:40.428Z,99123.66
2022-09-20T08:04:08.863Z,99129.06
2022-09-20T08:06:40.209Z,99127.84
2022-09-20T08:09:10.945Z,99134.47
2022-09-20T08:11:39.637Z,99133.50
2022-09-20T08:14:08.895Z,99140.69
2022-09-20T08:16:45.460Z,99136.47
2022-09-20T08:19:23.085Z,99144.69
2022-09-20T08:21:54.311Z,99138.25
2022-09-20T08:24:21.634Z,99140.47
2022-09-20T08:26:48.499Z,99133.44
2022-09-20T08:29:15.489Z,99140.66
2022-09-20T08:31:42.799Z,99155.53
2022-09-20T08:34:13.329Z,99147.28
2022-09-20T08:36:42.474Z,99161.34
2022-09-20T08:42:24.098Z,99153.94
2022-09-20T08:45:22.581Z,99153.13
2022-09-20T08:47:58.538Z,99149.31
2022-09-20T08:50:26.988Z,99158.56
2022-09-20T08:53:00.101Z,99158.53
2022-09-20T08:55:36.389Z,99160.75
2022-09-20T08:58:08.139Z,99156.69
2022-09-20T09:00:37.592Z,99160.56
2022-09-20T09:03:12.781Z,99164.75
2022-09-20T09:05:48.163Z,99177.41
2022-09-20T09:08:20.539Z,99156.72
2022-09-20T09:10:55.031Z,99167.75
2022-09-20T09:13:44.809Z,99163.56
2022-09-20T09:16:25.753Z,99163.97
2022-09-20T09:18:56.433Z,99163.56
2022-09-20T09:21:25.917Z,99160.16
2022-09-20T09:24:11.828Z,99162.97
2022-09-20T09:26:44.027Z,99164.97
2022-09-20T09:29:18.181Z,99155.25
2022-09-20T09:31:47.033Z,99157.78
2022-09-20T09:34:26.128Z,99148.38
2022-09-20T09:36:54.434Z,99145.94
2022-09-20T09:39:41.155Z,99147.94
2022-09-20T09:42:28.803Z,99149.75
2022-09-20T09:45:11.472Z,99149.03
2022-09-20T09:47:38.402Z,99145.06
2022-09-20T09:50:09.691Z,99149.75
2022-09-20T09:52:39.662Z,99150.41
2022-09-20T09:55:07.405Z,99155.53
2022-09-20T09:57:55.707Z,99151.53
2022-09-20T10:00:25.217Z,99148.00
2022-09-20T10:03:33.490Z,99144.72
2022-09-20T10:06:21.093Z,99139.50
2022-09-20T10:09:32.663Z,99148.38
2022-09-20T10:12:14.711Z,99140.47
2022-09-20T10:15:10.285Z,99140.06
2022-09-20T10:17:45.691Z,99151.03
2022-09-20T10:20:51.315Z,99138.88
2022-09-20T10:24:01.384Z,99145.44
2022-09-20T10:26:30.818Z,99133.03
2022-09-20T10:29:17.500Z,99139.75
2022-09-20T10:32:03.677Z,99144.56
2022-09-20T10:35:08.396Z,99141.28
2022-09-20T10:37:49.331Z,99148.53
2022-09-20T10:40:16.030Z,99141.28
2022-09-20T10:43:08.588Z,99142.28
2022-09-20T10:46:20.496Z,99139.34
2022-09-20T10:48:54.598Z,99138.78
2022-09-20T10:51:31.607Z,99148.69
2022-09-20T10:54:31.816Z,99144.59
2022-09-20T10:57:49.826Z,99145.38
2022-09-20T11:00:24.982Z,99147.88
2022-09-20T11:03:38.045Z,99145.97
2022-09-20T11:06:23.596Z,99135.13
2022-09-20T11:08:58.276Z,99134.75
2022-09-20T11:11:45.507Z,99140.00
2022-09-20T11:14:33.448Z,99138.59
2022-09-20T11:17:23.836Z,99142.06
2022-09-20T11:20:07.700Z,99141.13
2022-09-20T11:22:43.862Z,99149.91
2022-09-20T11:25:19.998Z,99138.75
2022-09-20T11:28:00.775Z,99147.00
2022-09-20T11:30:30.350Z,99136.59
2022-09-20T11:33:06.243Z,99150.50
2022-09-20T11:35:46.078Z,99143.88
2022-09-20T11:38:22.358Z,99137.78
2022-09-20T11:41:05.097Z,99136.31
2022-09-20T11:43:33.581Z,99142.59
2022-09-20T11:46:04.666Z,99139.31
2022-09-20T11:48:41.953Z,99139.03
2022-09-20T11:51:18.425Z,99135.72
2022-09-20T11:53:56.569Z,99146.31
2022-09-20T11:56:24.929Z,99141.28
2022-09-20T11:59:29.398Z,99137.91
2022-09-20T12:02:00.428Z,99134.75
2022-09-20T12:04:33.674Z,99137.34
2022-09-20T12:07:18.319Z,99138.19
2022-09-20T12:10:03.998Z,99143.06
2022-09-20T12:12:44.345Z,99140.03
2022-09-20T12:15:34.397Z,99140.16
2022-09-20T12:18:02.646Z,99131.19
2022-09-20T12:20:35.107Z,99124.09
2022-09-20T12:23:42.297Z,99122.94
2022-09-20T12:26:12.145Z,99116.31
2022-09-20T12:28:44.858Z,99126.28
2022-09-20T12:31:29.627Z,99121.25
2022-09-20T12:34:24.211Z,99129.56
2022-09-20T12:36:58.583Z,99118.03
2022-09-20T12:39:58.663Z,99119.38
2022-09-20T12:42:30.467Z,99126.53
2022-09-20T12:45:09.580Z,99120.16
2022-09-20T12:47:38.173Z,99115.09
2022-09-20T12:50:32.697Z,99113.63
2022-09-20T12:53:06.253Z,99115.09
2022-09-20T12:55:57.499Z,99112.59
2022-09-20T12:58:32.546Z,99114.72
2022-09-20T13:01:05.328Z,99118.84
2022-09-20T13:03:40.334Z,99117.84
2022-09-20T13:06:06.909Z,99105.59
2022-09-20T13:09:01.079Z,99113.66
2022-09-20T13:11:52.560Z,99110.22
2022-09-20T13:14:26.820Z,99101.09
2022-09-20T13:17:13.615Z,99103.34
2022-09-20T13:19:46.624Z,99103.66
2022-09-20T13:22:14.884Z,99105.47
2022-09-20T13:24:45.160Z,99099.06
2022-09-20T13:27:34.647Z,99094.50
2022-09-20T13:30:25.136Z,99091.22
2022-09-20T13:32:51.745Z,99095.03
2022-09-20T13:35:21.547Z,99091.91
2022-09-20T13:37:53.592Z,99086.81
2022-09-20T13:40:50.199Z,99094.47
2022-09-20T13:43:24.415Z,99088.47
2022-09-20T13:46:12.012Z,99081.16
2022-09-20T13:48:39.128Z,99088.19
2022-09-20T13:51:17.333Z,99086.50
2022-09-20T13:53:44.934Z,99084.09
2022-09-20T13:56:34.153Z,99082.72
2022-09-20T13:59:05.343Z,99081.44
2022-09-20T14:01:35.488Z,99077.19
2022-09-20T14:04:14.663Z,99077.59
2022-09-20T14:06:42.664Z,99079.31
2022-09-20T14:09:20.927Z,99076.06
2022-09-20T14:11:50.875Z,99074.47
2022-09-20T14:14:25.721Z,99073.56
2022-09-20T14:16:56.612Z,99087.50
2022-09-20T14:19:37.311Z,99082.69
2022-09-20T14:22:05.460Z,99075.09
2022-09-20T14:24:39.170Z,99080.22
2022-09-20T14:27:16.577Z,99077.69
2022-09-20T14:29:46.658Z,99072.84
2022-09-20T14:32:19.163Z,99083.66
2022-09-20T14:35:06.554Z,99088.22
2022-09-20T14:37:41.724Z,99083.22
2022-09-20T14:40:33.267Z,99089.75
2022-09-20T14:43:05.814Z,99081.97
2022-09-20T14:45:39.331Z,99088.00
2022-09-20T14:48:11.909Z,99097.47
2022-09-20T14:50:41.607Z,99100.66
2022-09-20T14:53:11.055Z,99105.53
2022-09-20T14:55:39.131Z,99101.38
2022-09-20T14:58:14.302Z,99101.69
2022-09-20T15:00:50.789Z,99108.97
2022-09-20T15:03:29.166Z,99107.13
2022-09-20T15:05:58.737Z,99105.41
2022-09-20T15:08:25.892Z,99105.38
2022-09-20T15:10:52.546Z,99105.78
2022-09-20T15:13:19.308Z,99113.03
2022-09-20T15:15:52.775Z,99114.59
2022-09-20T15:18:22.509Z,99111.44
2022-09-20T15:20:50.557Z,99119.28
2022-09-20T15:23:20.316Z,99112.66
2022-09-20T15:25:54.252Z,99116.97
2022-09-20T15:28:21.664Z,99118.06
2022-09-20T15:30:50.460Z,99114.88
2022-09-20T15:33:21.360Z,99118.72
2022-09-20T15:35:48.911Z,99118.81
2022-09-20T15:38:18.252Z,99119.25
2022-09-20T15:40:47.546Z,99122.53
2022-09-20T15:43:17.318Z,99124.78
2022-09-20T15:45:57.213Z,99129.03
2022-09-20T15:48:26.188Z,99131.41
2022-09-20T15:51:12.484Z,99126.84
2022-09-20T15:53:46.458Z,99127.69
2022-09-20T15:56:41.127Z,99136.44
2022-09-20T15:59:12.034Z,99140.28
2022-09-20T16:01:47.309Z,99143.00
2022-09-20T16:04:19.539Z,99159.41
2022-09-20T16:06:49.639Z,99163.69
2022-09-20T16:09:18.142Z,99162.19
2022-09-20T16:11:51.943Z,99171.06
2022-09-20T16:14:18.589Z,99162.16
2022-09-20T16:16:45.351Z,99167.28
2022-09-20T16:19:18.002Z,99167.56
2022-09-20T16:21:55.134Z,99160.38
2022-09-20T16:24:32.166Z,99165.41
2022-09-20T16:27:03.692Z,99165.75
2022-09-20T16:29:31.222Z,99169.97
2022-09-20T16:32:03.468Z,99177.56
2022-09-20T16:34:43.098Z,99185.09
2022-09-20T16:37:17.433Z,99199.94
2022-09-20T16:39:44.332Z,99202.44
2022-09-20T16:42:14.924Z,99205.75
2022-09-20T16:45:24.449Z,99213.59
2022-09-20T16:47:50.157Z,99221.28
2022-09-20T16:50:18.686Z,99225.28
2022-09-20T16:52:45.349Z,99217.53
2022-09-20T16:55:13.044Z,99214.44
2022-09-20T16:57:39.646Z,99216.09
2022-09-20T17:00:07.086Z,99210.88
2022-09-20T17:02:33.728Z,99217.72
2022-09-20T17:05:00.681Z,99221.72
2022-09-20T17:07:27.441Z,99217.13
2022-09-20T17:10:01.231Z,99220.50
2022-09-20T17:12:33.984Z,99219.72
2022-09-20T17:15:00.499Z,99222.53
2022-09-20T17:17:31.287Z,99220.94
2022-09-20T17:19:57.972Z,99219.31
2022-09-20T17:22:27.316Z,99223.31
2022-09-20T17:24:54.803Z,99223.13
2022-09-20T17:27:21.999Z,99217.91
2022-09-20T17:29:48.512Z,99224.13
2022-09-20T17:32:15.103Z,99229.31
2022-09-20T17:34:41.747Z,99234.31
2022-09-20T17:37:08.344Z,99240.94
2022-09-20T17:39:34.918Z,99239.91
2022-09-20T17:42:02.147Z,99249.50
2022-09-20T17:44:28.833Z,99247.69
2022-09-20T17:46:58.203Z,99253.31
2022-09-20T17:49:26.654Z,99257.53
2022-09-20T17:51:55.385Z,99258.47
2022-09-20T17:54:24.170Z,99258.28
2022-09-20T17:56:53.229Z,99265.25
2022-09-20T17:59:20.379Z,99262.56
2022-09-20T18:01:49.586Z,99256.31
2022-09-20T18:04:16.477Z,99256.66
2022-09-20T18:06:48.506Z,99263.72
2022-09-20T18:09:22.336Z,99262.06
2022-09-20T18:11:58.132Z,99267.84
2022-09-20T18:14:32.107Z,99265.28
2022-09-20T18:17:01.506Z,99265.59
2022-09-20T18:19:34.842Z,99282.25
2022-09-20T18:22:02.435Z,99286.97
2022-09-20T18:24:29.963Z,99288.13
2022-09-20T18:26:56.524Z,99292.31
2022-09-20T18:29:34.349Z,99293.03
2022-09-20T18:32:01.290Z,99299.22
2022-09-20T18:34:33.357Z,99300.69
2022-09-20T18:37:01.297Z,99307.22
2022-09-20T18:39:32.302Z,99305.38
2022-09-20T18:41:59.945Z,99310.75
2022-09-20T18:44:27.562Z,99303.69
2022-09-20T18:46:55.049Z,99312.09
2022-09-20T18:49:22.461Z,99311.69
2022-09-20T18:51:49.802Z,99319.69
2022-09-20T18:54:17.263Z,99315.59
2022-09-20T18:56:45.980Z,99321.66
2022-09-20T18:59:29.315Z,99314.22
2022-09-20T19:02:07.896Z,99318.63
2022-09-20T19:04:58.552Z,99314.06
2022-09-20T19:07:28.145Z,99315.59
2022-09-20T19:09:59.940Z,99322.63
2022-09-20T19:12:45.847Z,99320.13
2022-09-20T19:15:54.941Z,99322.91
2022-09-20T19:18:30.285Z,99326.25
2022-09-20T19:21:39.741Z,99335.97
2022-09-20T19:24:16.469Z,99336.88
2022-09-20T19:26:44.107Z,99334.59
2022-09-20T19:29:22.670Z,99333.44
2022-09-20T19:31:51.293Z,99340.16
2022-09-20T19:34:30.176Z,99341.72
2022-09-20T19:37:21.531Z,99341.75
2022-09-20T19:40:06.553Z,99347.16
2022-09-20T19:43:00.080Z,99353.59
2022-09-20T19:45:47.632Z,99356.28
2022-09-20T19:48:28.720Z,99361.91
2022-09-20T19:50:56.461Z,99364.72
2022-09-20T19:53:26.171Z,99367.59
2022-09-20T19:55:56.959Z,99371.56
2022-09-20T19:58:23.718Z,99372.81
2022-09-20T20:00:50.545Z,99373.88
2022-09-20T20:03:23.438Z,99371.63
2022-09-20T20:06:19.377Z,99380.44
2022-09-20T20:08:55.095Z,99380.69
2022-09-20T20:11:29.922Z,99385.00
2022-09-20T20:14:07.783Z,99379.81
2022-09-20T20:16:53.105Z,99378.00
2022-09-20T20:19:49.275Z,99379.09
2022-09-20T20:22:38.127Z,99382.88
2022-09-20T20:25:05.169Z,99386.63
2022-09-20T20:27:34.876Z,99391.75
2022-09-20T20:30:01.287Z,99385.13
2022-09-20T20:32:29.851Z,99392.81
2022-09-20T20:34:56.211Z,99395.06
2022-09-20T20:37:24.360Z,99403.59
2022-09-20T20:39:51.989Z,99398.47
2022-09-20T20:42:21.336Z,99398.94
2022-09-20T20:44:47.880Z,99394.06
2022-09-20T20:47:14.241Z,99395.25
2022-09-20T20:49:40.710Z,99404.38
2022-09-20T20:52:08.855Z,99394.84
2022-09-20T20:54:35.262Z,99410.44
2022-09-20T20:57:04.661Z,99407.94
2022-09-20T20:59:31.710Z,99416.06
2022-09-20T21:01:58.126Z,99408.72
2022-09-20T21:04:25.318Z,99416.06
2022-09-20T21:06:51.687Z,99410.44
2022-09-20T21:09:19.241Z,99410.97
2022-09-20T21:11:48.258Z,99418.75
2022-09-20T21:14:17.679Z,99418.25
2022-09-20T21:16:45.029Z,99419.53
2022-09-20T21:19:15.018Z,99423.78
2022-09-20T21:21:43.639Z,99417.97
2022-09-20T21:24:12.687Z,99423.16
2022-09-20T21:26:40.309Z,99432.72
2022-09-20T21:29:10.959Z,99428.16
2022-09-20T21:31:42.597Z,99429.31
2022-09-20T21:34:10.408Z,99429.31
2022-09-20T21:36:38.356Z,99429.53
2022-09-20T21:39:05.893Z,99438.59
2022-09-20T21:41:34.518Z,99445.59
2022-09-20T21:44:03.877Z,99435.56
2022-09-20T21:46:33.567Z,99442.38
2022-09-20T21:49:03.961Z,99440.00
2022-09-20T21:51:32.050Z,99447.69
2022-09-20T21:54:01.261Z,99445.09
2022-09-20T21:56:31.329Z,99443.63
2022-09-20T21:58:58.745Z,99451.22
2022-09-20T22:01:27.335Z,99444.03
2022-09-20T22:03:57.429Z,99443.84
2022-09-20T22:06:27.877Z,99446.78
2022-09-20T22:08:58.377Z,99452.13
2022-09-20T22:11:34.069Z,99445.34
2022-09-20T22:14:00.664Z,99452.47
2022-09-20T22:16:29.603Z,99451.84
2022-09-20T22:18:56.317Z,99451.31
2022-09-20T22:21:28.924Z,99452.34
2022-09-20T22:24:04.283Z,99448.63
2022-09-20T22:26:34.526Z,99451.88
2022-09-20T22:29:01.937Z,99459.97
2022-09-20T22:31:31.014Z,99448.34
2022-09-20T22:34:04.076Z,99447.34
2022-09-20T22:36:36.563Z,99446.94
2022-09-20T22:39:04.947Z,99449.41
2022-09-20T22:41:31.584Z,99446.94
2022-09-20T22:43:57.973Z,99459.75
2022-09-20T22:46:26.885Z,99459.13
2022-09-20T22:48:53.657Z,99459.94
2022-09-20T22:51:22.556Z,99459.25
2022-09-20T22:53:49.452Z,99462.88
2022-09-20T22:56:24.893Z,99457.69
2022-09-20T22:58:55.512Z,99455.09
2022-09-20T23:01:31.434Z,99459.84
2022-09-20T23:04:01.156Z,99456.91
2022-09-20T23:06:31.479Z,99463.38
2022-09-20T23:09:01.144Z,99468.91
2022-09-20T23:11:28.997Z,99464.72
2022-09-20T23:13:57.645Z,99464.88
2022-09-20T23:16:26.637Z,99466.00
2022-09-20T23:18:54.606Z,99469.72
2022-09-20T23:21:21.656Z,99469.56
2022-09-20T23:23:53.306Z,99475.72
2022-09-20T23:26:20.587Z,99473.31
2022-09-20T23:28:54.639Z,99471.53
2022-09-20T23:31:21.864Z,99471.53
2022-09-20T23:33:59.609Z,99462.94
2022-09-20T23:36:29.469Z,99464.22
2022-09-20T23:38:59.742Z,99470.38
2022-09-20T23:41:27.475Z,99471.34
2022-09-20T23:43:54.870Z,99472.00
2022-09-20T23:46:23.232Z,99475.91
2022-09-20T23:48:52.656Z,99473.78
2022-09-20T23:51:22.621Z,99471.69
2022-09-20T23:53:50.116Z,99466.84
2022-09-20T23:56:17.087Z,99474.28
2022-09-20T23:58:45.003Z,99469.94
